createdAt,value
2017-06-22T00:00:02.880Z,21.20
2017-06-22T00:02:30.967Z,21.20
2017-06-22T00:04:59.073Z,21.20
2017-06-22T00:07:27.164Z,20.80
2017-06-22T00:09:55.272Z,21.00
2017-06-22T00:12:23.370Z,21.10
2017-06-22T00:14:51.460Z,21.20
2017-06-22T00:17:19.551Z,21.10
2017-06-22T00:19:47.647Z,20.90
2017-06-22T00:22:15.748Z,20.80
2017-06-22T00:24:43.843Z,20.60
2017-06-22T00:27:11.969Z,20.60
2017-06-22T00:29:40.049Z,20.20
2017-06-22T00:32:08.153Z,20.10
2017-06-22T00:34:36.316Z,20.30
2017-06-22T00:37:04.572Z,20.30
2017-06-22T00:39:32.723Z,20.40
2017-06-22T00:42:00.814Z,20.60
2017-06-22T00:44:28.919Z,20.70
2017-06-22T00:46:57.007Z,20.80
2017-06-22T00:49:25.095Z,20.80
2017-06-22T00:51:53.200Z,20.60
2017-06-22T00:54:21.287Z,20.60
2017-06-22T00:56:49.380Z,20.40
2017-06-22T00:59:17.464Z,20.50
2017-06-22T01:01:45.571Z,20.50
2017-06-22T01:04:13.662Z,20.20
2017-06-22T01:06:41.746Z,20.30
2017-06-22T01:09:09.839Z,20.30
2017-06-22T01:11:37.928Z,20.20
2017-06-22T01:14:06.023Z,20.10
2017-06-22T01:16:34.104Z,20.00
2017-06-22T01:19:02.215Z,20.00
2017-06-22T01:21:30.296Z,20.00
2017-06-22T01:23:58.383Z,20.10
2017-06-22T01:26:26.477Z,20.20
2017-06-22T01:28:54.568Z,20.00
2017-06-22T01:31:22.676Z,19.90
2017-06-22T01:33:50.760Z,20.00
2017-06-22T01:36:18.860Z,19.90
2017-06-22T01:38:46.939Z,19.80
2017-06-22T01:41:15.043Z,19.90
2017-06-22T01:43:43.128Z,19.90
2017-06-22T01:46:11.211Z,20.00
2017-06-22T01:48:39.311Z,20.00
2017-06-22T01:51:07.395Z,19.90
2017-06-22T01:53:36.251Z,19.50
2017-06-22T01:56:04.351Z,19.50
2017-06-22T01:58:33.339Z,19.10
2017-06-22T02:01:01.617Z,19.10
2017-06-22T02:03:29.715Z,19.00
2017-06-22T02:05:57.834Z,19.30
2017-06-22T02:08:25.935Z,19.10
2017-06-22T02:10:54.796Z,19.00
2017-06-22T02:13:22.892Z,19.00
2017-06-22T02:15:51.883Z,19.30
2017-06-22T02:18:19.984Z,19.30
2017-06-22T02:20:48.089Z,19.10
2017-06-22T02:23:16.195Z,19.00
2017-06-22T02:25:44.296Z,19.20
2017-06-22T02:28:12.397Z,19.40
2017-06-22T02:30:40.483Z,19.50
2017-06-22T02:33:08.579Z,19.40
2017-06-22T02:35:36.681Z,19.00
2017-06-22T02:38:04.920Z,19.20
2017-06-22T02:40:33.001Z,19.00
2017-06-22T02:43:01.108Z,19.00
2017-06-22T02:45:29.199Z,18.80
2017-06-22T02:47:57.286Z,18.90
2017-06-22T02:50:25.383Z,19.10
2017-06-22T02:52:53.471Z,19.30
2017-06-22T02:55:21.556Z,19.30
2017-06-22T02:57:49.643Z,18.90
2017-06-22T03:00:17.737Z,19.00
2017-06-22T03:02:45.893Z,19.00
2017-06-22T03:05:13.980Z,19.00
2017-06-22T03:07:53.755Z,18.80
2017-06-22T03:10:21.985Z,18.80
2017-06-22T03:12:50.183Z,18.80
2017-06-22T03:15:18.276Z,18.90
2017-06-22T03:17:46.367Z,18.90
2017-06-22T03:20:14.451Z,18.70
2017-06-22T03:22:42.549Z,18.70
2017-06-22T03:25:10.635Z,18.80
2017-06-22T03:27:38.735Z,18.70
2017-06-22T03:30:06.827Z,18.80
2017-06-22T03:32:34.906Z,18.40
2017-06-22T03:35:03.017Z,18.60
2017-06-22T03:37:31.101Z,18.70
2017-06-22T03:39:59.191Z,18.30
2017-06-22T03:42:27.295Z,18.10
2017-06-22T03:44:55.386Z,18.40
2017-06-22T03:47:23.471Z,18.40
2017-06-22T03:49:51.566Z,18.70
2017-06-22T03:52:19.688Z,18.80
2017-06-22T03:54:47.983Z,19.00
2017-06-22T03:57:16.075Z,19.00
2017-06-22T03:59:44.160Z,19.10
2017-06-22T04:02:12.267Z,19.10
2017-06-22T04:04:40.466Z,19.10
2017-06-22T04:07:08.547Z,19.20
2017-06-22T04:09:36.643Z,19.20
2017-06-22T04:12:04.731Z,19.20
2017-06-22T04:14:32.819Z,19.30
2017-06-22T04:17:00.907Z,19.40
2017-06-22T04:19:29.000Z,19.50
2017-06-22T04:21:57.086Z,19.60
2017-06-22T04:24:25.179Z,19.80
2017-06-22T04:26:53.283Z,19.80
2017-06-22T04:29:21.388Z,19.90
2017-06-22T04:31:49.487Z,19.90
2017-06-22T04:34:17.585Z,20.10
2017-06-22T04:36:45.680Z,20.20
2017-06-22T04:39:13.758Z,20.30
2017-06-22T04:41:42.627Z,20.60
2017-06-22T04:44:10.708Z,20.60
2017-06-22T04:46:39.084Z,20.80
2017-06-22T04:49:07.171Z,21.00
2017-06-22T04:51:35.261Z,21.20
2017-06-22T04:54:03.351Z,21.20
2017-06-22T04:56:31.439Z,21.10
2017-06-22T04:58:59.543Z,21.30
2017-06-22T05:01:27.629Z,21.30
2017-06-22T05:03:55.735Z,21.60
2017-06-22T05:06:23.827Z,21.80
2017-06-22T05:08:51.925Z,21.90
2017-06-22T05:11:20.017Z,21.60
2017-06-22T05:13:48.187Z,21.80
2017-06-22T05:16:16.566Z,22.10
2017-06-22T05:18:44.811Z,22.50
2017-06-22T05:21:12.920Z,22.60
2017-06-22T05:23:41.007Z,22.90
2017-06-22T05:26:09.096Z,23.10
2017-06-22T05:28:37.191Z,23.30
2017-06-22T05:31:05.283Z,23.60
2017-06-22T05:33:33.384Z,23.50
2017-06-22T05:36:01.483Z,23.40
2017-06-22T05:38:29.596Z,23.20
2017-06-22T05:40:57.695Z,22.70
2017-06-22T05:43:25.786Z,22.70
2017-06-22T05:45:53.879Z,23.00
2017-06-22T05:48:21.962Z,23.10
2017-06-22T05:50:50.060Z,23.40
2017-06-22T05:53:18.148Z,23.70
2017-06-22T05:55:46.247Z,23.80
2017-06-22T05:58:14.341Z,23.60
2017-06-22T06:00:42.445Z,23.90
2017-06-22T06:03:10.523Z,23.70
2017-06-22T06:05:38.632Z,23.90
2017-06-22T06:08:06.724Z,24.00
2017-06-22T06:10:34.815Z,23.80
2017-06-22T06:13:02.915Z,24.40
2017-06-22T06:15:31.011Z,24.00
2017-06-22T06:17:59.116Z,24.90
2017-06-22T06:20:27.198Z,25.70
2017-06-22T06:22:55.282Z,26.10
2017-06-22T06:25:23.409Z,26.50
2017-06-22T06:27:51.500Z,26.70
2017-06-22T06:30:19.589Z,26.80
2017-06-22T06:32:47.707Z,26.90
2017-06-22T06:35:15.787Z,27.20
2017-06-22T06:37:43.875Z,27.10
2017-06-22T06:40:11.974Z,26.90
2017-06-22T06:42:40.094Z,26.80
2017-06-22T06:45:08.178Z,27.20
2017-06-22T06:47:36.285Z,27.40
2017-06-22T06:50:04.380Z,27.00
2017-06-22T06:52:32.478Z,26.60
2017-06-22T06:55:00.579Z,27.00
2017-06-22T06:57:28.665Z,27.20
2017-06-22T06:59:56.748Z,27.10
2017-06-22T07:02:24.846Z,26.80
2017-06-22T07:04:52.944Z,26.60
2017-06-22T07:07:21.047Z,26.70
2017-06-22T07:09:49.147Z,27.10
2017-06-22T07:12:17.248Z,27.00
2017-06-22T07:14:45.344Z,27.20
2017-06-22T07:17:13.448Z,27.30
2017-06-22T07:19:41.545Z,27.60
2017-06-22T07:22:09.631Z,27.70
2017-06-22T07:24:37.726Z,27.80
2017-06-22T07:27:05.818Z,27.80
2017-06-22T07:29:33.918Z,28.30
2017-06-22T07:32:02.016Z,28.10
2017-06-22T07:34:30.116Z,28.20
2017-06-22T07:36:58.203Z,28.40
2017-06-22T07:39:26.292Z,28.30
2017-06-22T07:41:54.383Z,28.70
2017-06-22T07:44:22.508Z,28.90
2017-06-22T07:46:50.588Z,29.00
2017-06-22T07:49:18.679Z,29.30
2017-06-22T07:51:46.785Z,29.50
2017-06-22T07:54:14.866Z,29.60
2017-06-22T07:56:42.979Z,30.30
2017-06-22T07:59:11.067Z,29.80
2017-06-22T08:01:39.175Z,28.90
2017-06-22T08:04:07.260Z,29.80
2017-06-22T08:06:35.357Z,29.60
2017-06-22T08:09:03.460Z,29.80
2017-06-22T08:11:31.562Z,29.90
2017-06-22T08:13:59.652Z,29.90
2017-06-22T08:16:27.775Z,30.20
2017-06-22T08:18:55.879Z,29.80
2017-06-22T08:21:23.959Z,30.00
2017-06-22T08:23:52.065Z,30.60
2017-06-22T08:26:20.143Z,31.30
2017-06-22T08:28:48.236Z,31.10
2017-06-22T08:31:16.343Z,31.60
2017-06-22T08:33:44.454Z,30.80
2017-06-22T08:36:12.551Z,30.80
2017-06-22T08:38:40.646Z,30.90
2017-06-22T08:41:08.741Z,31.20
2017-06-22T08:43:36.823Z,31.30
2017-06-22T08:46:05.139Z,31.70
2017-06-22T08:48:33.223Z,31.40
2017-06-22T08:51:01.315Z,32.10
2017-06-22T08:53:29.400Z,31.70
2017-06-22T08:55:57.495Z,32.20
2017-06-22T08:58:25.588Z,33.30
2017-06-22T09:00:53.682Z,32.50
2017-06-22T09:03:21.787Z,32.90
2017-06-22T09:05:49.871Z,32.00
2017-06-22T09:08:17.965Z,32.40
2017-06-22T09:10:46.130Z,32.60
2017-06-22T09:13:14.230Z,33.30
2017-06-22T09:15:42.319Z,32.70
2017-06-22T09:18:10.412Z,32.90
2017-06-22T09:20:38.503Z,32.70
2017-06-22T09:23:06.595Z,31.40
2017-06-22T09:25:34.687Z,31.60
2017-06-22T09:28:02.776Z,31.50
2017-06-22T09:30:30.875Z,31.30
2017-06-22T09:32:58.967Z,31.60
2017-06-22T09:35:27.051Z,31.30
2017-06-22T09:37:55.138Z,31.40
2017-06-22T09:40:23.280Z,32.10
2017-06-22T09:42:51.344Z,31.90
2017-06-22T09:45:19.423Z,32.30
2017-06-22T09:47:47.519Z,32.00
2017-06-22T09:50:15.598Z,32.30
2017-06-22T09:52:43.710Z,33.10
2017-06-22T09:55:11.787Z,33.10
2017-06-22T09:57:39.885Z,33.60
2017-06-22T10:00:07.968Z,34.00
2017-06-22T10:02:36.058Z,34.00
2017-06-22T10:05:04.147Z,34.70
2017-06-22T10:07:32.251Z,34.20
2017-06-22T10:10:00.348Z,34.20
2017-06-22T10:12:28.447Z,33.60
2017-06-22T10:14:56.691Z,33.20
2017-06-22T10:17:24.779Z,33.90
2017-06-22T10:19:52.886Z,33.90
2017-06-22T10:22:20.975Z,34.20
2017-06-22T10:24:49.168Z,34.20
2017-06-22T10:27:17.251Z,33.70
2017-06-22T10:29:45.515Z,33.10
2017-06-22T10:32:13.616Z,33.90
2017-06-22T10:34:41.711Z,33.40
2017-06-22T10:37:09.803Z,33.10
2017-06-22T10:39:37.900Z,34.40
2017-06-22T10:42:05.991Z,35.80
2017-06-22T10:44:34.169Z,35.00
2017-06-22T10:47:04.491Z,34.50
2017-06-22T10:49:34.908Z,34.20
2017-06-22T10:52:03.058Z,34.00
2017-06-22T10:54:31.333Z,34.80
2017-06-22T10:56:59.610Z,34.40
2017-06-22T10:59:27.696Z,34.70
2017-06-22T11:01:55.960Z,35.10
2017-06-22T11:04:24.127Z,34.80
2017-06-22T11:06:52.217Z,35.20
2017-06-22T11:09:20.302Z,34.40
2017-06-22T11:11:48.389Z,34.80
2017-06-22T11:14:16.709Z,34.50
2017-06-22T11:16:44.790Z,34.40
2017-06-22T11:19:12.903Z,33.50
2017-06-22T11:21:40.992Z,33.40
2017-06-22T11:24:09.067Z,33.70
2017-06-22T11:26:37.159Z,33.90
2017-06-22T11:29:05.347Z,34.20
2017-06-22T11:31:33.428Z,33.90
2017-06-22T11:34:01.517Z,34.60
2017-06-22T11:36:29.626Z,34.70
2017-06-22T11:38:57.722Z,35.20
2017-06-22T11:41:25.808Z,35.40
2017-06-22T11:43:53.901Z,34.80
2017-06-22T11:46:21.975Z,34.60
2017-06-22T11:48:50.072Z,35.30
2017-06-22T11:51:18.171Z,34.60
2017-06-22T11:53:46.276Z,34.80
2017-06-22T11:56:14.355Z,34.60
2017-06-22T11:58:42.453Z,35.10
2017-06-22T12:01:10.531Z,35.40
2017-06-22T12:03:38.635Z,34.40
2017-06-22T12:06:06.732Z,34.40
2017-06-22T12:08:34.821Z,34.50
2017-06-22T12:11:02.916Z,35.10
2017-06-22T12:13:30.992Z,35.70
2017-06-22T12:15:59.090Z,34.80
2017-06-22T12:18:27.185Z,34.90
2017-06-22T12:20:55.283Z,34.80
2017-06-22T12:23:23.371Z,34.80
2017-06-22T12:25:51.471Z,34.70
2017-06-22T12:28:19.564Z,34.20
2017-06-22T12:30:47.638Z,34.20
2017-06-22T12:33:15.735Z,35.50
2017-06-22T12:35:43.828Z,35.70
2017-06-22T12:38:11.935Z,35.10
2017-06-22T12:40:40.036Z,35.80
2017-06-22T12:43:08.126Z,34.70
2017-06-22T12:45:36.207Z,34.60
2017-06-22T12:48:04.308Z,34.80
2017-06-22T12:50:32.391Z,35.30
2017-06-22T12:53:00.481Z,35.50
2017-06-22T12:55:28.568Z,35.50
2017-06-22T12:57:56.663Z,35.80
2017-06-22T13:00:24.752Z,34.80
2017-06-22T13:02:52.842Z,34.20
2017-06-22T13:05:20.951Z,35.00
2017-06-22T13:07:49.031Z,34.90
2017-06-22T13:10:17.142Z,35.50
2017-06-22T13:12:45.223Z,35.70
2017-06-22T13:15:13.307Z,36.00
2017-06-22T13:17:41.398Z,35.20
2017-06-22T13:20:09.475Z,35.40
2017-06-22T13:22:37.567Z,35.30
2017-06-22T13:25:05.643Z,36.00
2017-06-22T13:27:33.731Z,36.90
2017-06-22T13:30:01.824Z,36.60
2017-06-22T13:32:29.923Z,35.70
2017-06-22T13:34:58.015Z,35.30
2017-06-22T13:37:26.086Z,35.80
2017-06-22T13:39:54.175Z,35.50
2017-06-22T13:42:22.259Z,35.00
2017-06-22T13:44:50.346Z,35.00
2017-06-22T13:47:18.428Z,35.50
2017-06-22T13:49:46.513Z,34.70
2017-06-22T13:52:14.590Z,34.70
2017-06-22T13:54:42.672Z,34.90
2017-06-22T13:57:10.743Z,34.60
2017-06-22T13:59:38.838Z,34.00
2017-06-22T14:02:06.907Z,34.40
2017-06-22T14:04:35.003Z,34.40
2017-06-22T14:07:03.104Z,34.80
2017-06-22T14:09:31.179Z,34.80
2017-06-22T14:11:59.263Z,34.80
2017-06-22T14:14:27.347Z,35.20
2017-06-22T14:16:55.528Z,35.20
2017-06-22T14:19:23.783Z,35.30
2017-06-22T14:21:51.889Z,34.80
2017-06-22T14:24:20.731Z,33.80
2017-06-22T14:26:48.835Z,33.80
2017-06-22T14:29:16.917Z,34.40
2017-06-22T14:31:44.991Z,34.20
2017-06-22T14:34:13.080Z,33.70
2017-06-22T14:36:41.154Z,33.20
2017-06-22T14:39:09.256Z,32.80
2017-06-22T14:41:37.352Z,33.20
2017-06-22T14:44:05.417Z,33.20
2017-06-22T14:46:33.509Z,33.50
2017-06-22T14:49:01.596Z,33.20
2017-06-22T14:51:29.689Z,33.10
2017-06-22T14:53:57.791Z,33.00
2017-06-22T14:56:25.875Z,33.20
2017-06-22T14:58:53.976Z,33.10
2017-06-22T15:01:22.068Z,33.00
2017-06-22T15:03:50.153Z,32.80
2017-06-22T15:06:18.249Z,32.70
2017-06-22T15:08:46.327Z,32.60
2017-06-22T15:11:14.410Z,33.00
2017-06-22T15:13:42.506Z,33.00
2017-06-22T15:16:10.610Z,32.70
2017-06-22T15:18:38.692Z,32.60
2017-06-22T15:21:06.778Z,32.60
2017-06-22T15:23:34.888Z,32.70
2017-06-22T15:26:02.980Z,32.60
2017-06-22T15:28:31.091Z,32.50
2017-06-22T15:30:59.178Z,32.40
2017-06-22T15:33:27.278Z,32.60
2017-06-22T15:35:55.376Z,32.40
2017-06-22T15:38:23.455Z,32.30
2017-06-22T15:40:51.547Z,32.30
2017-06-22T15:43:19.637Z,32.10
2017-06-22T15:45:47.726Z,32.00
2017-06-22T15:48:15.815Z,32.00
2017-06-22T15:50:43.947Z,32.10
2017-06-22T15:53:12.031Z,32.20
2017-06-22T15:55:40.135Z,32.20
2017-06-22T15:58:08.227Z,31.70
2017-06-22T16:00:36.323Z,31.70
2017-06-22T16:03:04.419Z,31.80
2017-06-22T16:05:32.512Z,31.90
2017-06-22T16:08:00.604Z,31.80
2017-06-22T16:10:28.695Z,31.90
2017-06-22T16:12:56.787Z,31.90
2017-06-22T16:15:24.882Z,31.80
2017-06-22T16:17:52.996Z,31.70
2017-06-22T16:20:21.092Z,31.70
2017-06-22T16:22:49.179Z,31.60
2017-06-22T16:25:17.269Z,31.30
2017-06-22T16:27:45.351Z,31.30
2017-06-22T16:30:13.441Z,31.10
2017-06-22T16:32:41.540Z,31.10
2017-06-22T16:35:09.632Z,30.90
2017-06-22T16:37:37.736Z,30.90
2017-06-22T16:40:05.840Z,30.90
2017-06-22T16:42:33.925Z,30.80
2017-06-22T16:45:02.008Z,30.90
2017-06-22T16:47:30.106Z,30.90
2017-06-22T16:49:58.186Z,30.90
2017-06-22T16:52:26.284Z,30.70
2017-06-22T16:54:54.368Z,30.70
2017-06-22T16:57:22.492Z,30.70
2017-06-22T16:59:50.587Z,30.60
2017-06-22T17:02:18.676Z,30.60
2017-06-22T17:04:46.762Z,30.60
2017-06-22T17:07:14.852Z,30.60
2017-06-22T17:09:42.943Z,30.70
2017-06-22T17:12:11.027Z,30.70
2017-06-22T17:14:39.127Z,30.60
2017-06-22T17:17:07.211Z,30.60
2017-06-22T17:19:35.299Z,30.50
2017-06-22T17:22:03.399Z,30.70
2017-06-22T17:24:31.495Z,30.40
2017-06-22T17:26:59.585Z,30.30
2017-06-22T17:29:27.670Z,30.20
2017-06-22T17:31:56.581Z,30.10
2017-06-22T17:34:24.677Z,30.00
2017-06-22T17:36:52.776Z,30.00
2017-06-22T17:39:20.855Z,30.00
2017-06-22T17:41:48.943Z,30.00
2017-06-22T17:44:17.049Z,29.90
2017-06-22T17:46:45.141Z,29.90
2017-06-22T17:49:13.247Z,29.80
2017-06-22T17:51:41.365Z,29.70
2017-06-22T17:54:09.499Z,29.50
2017-06-22T17:56:37.584Z,29.60
2017-06-22T17:59:05.681Z,29.60
2017-06-22T18:01:33.763Z,29.60
2017-06-22T18:04:01.864Z,29.60
2017-06-22T18:06:29.952Z,29.70
2017-06-22T18:08:58.053Z,29.70
2017-06-22T18:11:26.144Z,29.50
2017-06-22T18:13:54.239Z,29.50
2017-06-22T18:16:22.353Z,29.50
2017-06-22T18:18:50.431Z,29.30
2017-06-22T18:21:18.547Z,29.40
2017-06-22T18:23:46.644Z,29.30
2017-06-22T18:26:14.744Z,29.30
2017-06-22T18:28:42.833Z,29.30
2017-06-22T18:31:10.931Z,29.20
2017-06-22T18:33:39.031Z,29.10
2017-06-22T18:36:07.122Z,29.20
2017-06-22T18:38:35.212Z,28.90
2017-06-22T18:41:03.296Z,28.90
2017-06-22T18:43:31.384Z,28.90
2017-06-22T18:45:59.485Z,28.90
2017-06-22T18:48:27.563Z,28.90
2017-06-22T18:50:55.679Z,28.90
2017-06-22T18:53:23.763Z,28.90
2017-06-22T18:55:51.854Z,28.70
2017-06-22T18:58:19.940Z,28.80
2017-06-22T19:00:48.033Z,28.70
2017-06-22T19:03:16.133Z,28.50
2017-06-22T19:05:44.218Z,28.50
2017-06-22T19:08:12.302Z,28.40
2017-06-22T19:10:40.513Z,28.30
2017-06-22T19:13:08.781Z,28.20
2017-06-22T19:15:36.934Z,28.10
2017-06-22T19:18:05.016Z,28.10
2017-06-22T19:20:33.116Z,28.20
2017-06-22T19:23:01.197Z,28.20
2017-06-22T19:25:29.292Z,28.20
2017-06-22T19:27:57.389Z,28.30
2017-06-22T19:30:25.475Z,28.20
2017-06-22T19:32:53.564Z,28.10
2017-06-22T19:35:21.651Z,28.20
2017-06-22T19:37:49.759Z,28.20
2017-06-22T19:40:17.873Z,28.00
2017-06-22T19:42:45.951Z,28.00
2017-06-22T19:45:14.049Z,28.00
2017-06-22T19:47:42.146Z,27.90
2017-06-22T19:50:10.230Z,27.70
2017-06-22T19:52:38.318Z,27.80
2017-06-22T19:55:06.419Z,27.60
2017-06-22T19:57:34.525Z,27.80
2017-06-22T20:00:02.610Z,27.70
2017-06-22T20:02:30.728Z,27.60
2017-06-22T20:04:58.831Z,27.60
2017-06-22T20:07:26.922Z,27.50
2017-06-22T20:09:55.013Z,27.50
2017-06-22T20:12:23.104Z,27.40
2017-06-22T20:14:51.207Z,27.30
2017-06-22T20:17:19.301Z,27.20
2017-06-22T20:19:47.401Z,27.20
2017-06-22T20:22:15.477Z,27.20
2017-06-22T20:24:43.589Z,27.20
2017-06-22T20:27:11.671Z,27.20
2017-06-22T20:29:39.767Z,27.20
2017-06-22T20:32:07.875Z,27.10
2017-06-22T20:34:35.964Z,27.10
2017-06-22T20:37:04.057Z,27.20
2017-06-22T20:39:32.139Z,27.20
2017-06-22T20:42:00.265Z,27.10
2017-06-22T20:44:28.410Z,27.10
2017-06-22T20:46:56.525Z,27.00
2017-06-22T20:49:24.641Z,26.90
2017-06-22T20:51:52.710Z,26.90
2017-06-22T20:54:20.798Z,26.80
2017-06-22T20:56:48.888Z,26.90
2017-06-22T20:59:16.991Z,27.00
2017-06-22T21:01:45.080Z,27.00
2017-06-22T21:04:13.181Z,27.00
2017-06-22T21:06:42.851Z,27.00
2017-06-22T21:09:10.955Z,26.90
2017-06-22T21:11:39.820Z,27.00
2017-06-22T21:14:08.004Z,27.00
2017-06-22T21:16:36.169Z,27.00
2017-06-22T21:19:04.363Z,27.00
2017-06-22T21:21:32.467Z,27.00
2017-06-22T21:24:00.573Z,26.80
2017-06-22T21:26:28.673Z,26.80
2017-06-22T21:28:57.529Z,26.80
2017-06-22T21:31:25.645Z,26.70
2017-06-22T21:33:53.744Z,26.70
2017-06-22T21:36:21.877Z,26.70
2017-06-22T21:38:49.986Z,26.60
2017-06-22T21:41:18.093Z,26.60
2017-06-22T21:43:46.195Z,26.60
2017-06-22T21:46:14.287Z,26.50
2017-06-22T21:48:42.383Z,26.50
2017-06-22T21:51:10.477Z,26.50
2017-06-22T21:53:38.786Z,26.50
2017-06-22T21:56:06.878Z,26.40
2017-06-22T21:58:34.969Z,26.50
2017-06-22T22:01:03.067Z,26.50
2017-06-22T22:03:31.160Z,26.50
2017-06-22T22:05:59.251Z,26.40
2017-06-22T22:08:27.352Z,26.50
2017-06-22T22:10:55.456Z,26.50
2017-06-22T22:13:23.551Z,26.40
2017-06-22T22:15:51.705Z,26.40
2017-06-22T22:18:20.588Z,26.30
2017-06-22T22:20:49.440Z,26.10
2017-06-22T22:23:17.547Z,26.10
2017-06-22T22:25:46.414Z,26.00
2017-06-22T22:28:14.509Z,25.90
2017-06-22T22:30:42.607Z,25.90
2017-06-22T22:33:10.955Z,26.00
2017-06-22T22:35:39.091Z,26.00
2017-06-22T22:38:07.185Z,26.10
2017-06-22T22:40:35.275Z,26.20
2017-06-22T22:43:04.135Z,26.20
2017-06-22T22:45:32.241Z,26.20
2017-06-22T22:48:01.097Z,26.20
2017-06-22T22:50:29.496Z,26.20
2017-06-22T22:52:57.587Z,26.20
2017-06-22T22:55:25.697Z,26.30
2017-06-22T22:57:53.789Z,26.20
2017-06-22T23:00:21.901Z,26.20
2017-06-22T23:02:49.993Z,26.00
2017-06-22T23:05:18.087Z,26.10
2017-06-22T23:07:46.183Z,26.20
2017-06-22T23:10:14.490Z,26.00
2017-06-22T23:12:42.586Z,26.00
2017-06-22T23:15:11.498Z,26.00
2017-06-22T23:17:39.587Z,26.00
2017-06-22T23:20:08.440Z,26.00
2017-06-22T23:22:36.527Z,26.00
2017-06-22T23:25:04.624Z,26.10
2017-06-22T23:27:32.708Z,26.00
2017-06-22T23:30:00.800Z,26.00
2017-06-22T23:32:28.893Z,26.00
2017-06-22T23:34:56.983Z,25.90
2017-06-22T23:37:25.084Z,25.90
2017-06-22T23:39:53.197Z,25.80
2017-06-22T23:42:21.295Z,25.80
2017-06-22T23:44:49.387Z,25.80
2017-06-22T23:47:18.244Z,25.90
2017-06-22T23:49:46.323Z,25.80
2017-06-22T23:52:14.426Z,25.80
2017-06-22T23:54:43.267Z,25.70
2017-06-22T23:57:11.373Z,25.70
2017-06-22T23:59:40.229Z,25.70
